Time;durP1;ratioP1;P1;durP2;ratioP2;P2;SDS_P1;SDS_P2;PMS_P1;PMS_P2;Temp;Humidity;BMP_temperature;BMP_pressure;BME280_temperature;BME280_humidity;BME280_pressure;Samples;Min_cycle;Max_cycle;Signal;HPM_P1;HPM_P2
2021/11/08 00:01:07;;;;;;;20.70;4.00;;;;;;;9.15;91.01;101371.03;5033546;28;20225;-79
2021/11/08 00:03:35;;;;;;;15.70;3.70;;;;;;;9.16;90.67;101368.53;5033474;28;20179;-80
2021/11/08 00:06:04;;;;;;;18.13;3.67;;;;;;;9.16;90.94;101376.19;5035212;28;20468;-78
2021/11/08 00:08:29;;;;;;;19.23;4.30;;;;;;;9.20;91.22;101378.03;5034384;28;20186;-79
2021/11/08 00:10:55;;;;;;;13.37;3.93;;;;;;;9.20;91.27;101388.25;5016857;28;20261;-79
2021/11/08 00:13:21;;;;;;;17.00;3.67;;;;;;;9.21;91.51;101384.88;5031648;28;20249;-78
2021/11/08 00:21:04;;;;;;;21.83;4.40;;;;;;;9.24;91.09;101407.09;5034521;28;20210;-80
2021/11/08 00:23:29;;;;;;;17.83;3.40;;;;;;;9.23;90.74;101403.69;5033985;28;20186;-79
2021/11/08 00:25:57;;;;;;;13.83;3.53;;;;;;;9.25;91.14;101409.72;5015526;28;20186;-78
2021/11/08 00:28:24;;;;;;;17.17;2.90;;;;;;;9.24;90.77;101410.53;5032345;28;20217;-79
2021/11/08 00:30:50;;;;;;;15.80;3.50;;;;;;;9.24;90.67;101413.09;5031356;28;20301;-80
2021/11/08 00:33:17;;;;;;;16.30;3.50;;;;;;;9.27;90.62;101420.00;5030872;28;20236;-79
2021/11/08 00:35:44;;;;;;;19.20;3.93;;;;;;;9.29;90.77;101416.66;5029069;28;20221;-80
2021/11/08 00:38:10;;;;;;;14.13;3.10;;;;;;;9.32;89.82;101411.66;5029927;28;20237;-77
2021/11/08 00:40:37;;;;;;;15.53;3.23;;;;;;;9.31;90.73;101419.28;5030888;28;20597;-79
2021/11/08 00:43:03;;;;;;;15.97;3.87;;;;;;;9.31;90.41;101421.84;5030460;28;20190;-78
2021/11/08 00:45:29;;;;;;;15.60;3.70;;;;;;;9.30;90.34;101423.50;5014826;28;20178;-78
2021/11/08 00:47:55;;;;;;;18.40;3.10;;;;;;;9.32;89.94;101429.56;5030935;28;20190;-78
2021/11/08 00:50:21;;;;;;;14.93;2.87;;;;;;;9.31;89.96;101437.16;5032858;28;20218;-78
2021/11/08 00:52:48;;;;;;;13.40;3.57;;;;;;;9.28;89.98;101432.81;5014867;28;20210;-78
2021/11/08 00:55:15;;;;;;;16.83;4.30;;;;;;;9.29;90.46;101436.22;5014872;28;20197;-80
2021/11/08 00:57:41;;;;;;;14.07;2.97;;;;;;;9.30;90.51;101440.53;5031203;28;20201;-79
2021/11/08 01:00:09;;;;;;;14.33;4.00;;;;;;;9.27;90.38;101436.16;5021890;28;20697;-79
2021/11/08 01:02:34;;;;;;;13.07;3.47;;;;;;;9.24;89.64;101443.75;5039720;28;20187;-78
2021/11/08 01:05:00;;;;;;;19.37;3.33;;;;;;;9.24;90.25;101440.31;5034838;28;20242;-79
2021/11/08 01:07:27;;;;;;;13.53;3.13;;;;;;;9.23;90.11;101448.81;5032861;28;20191;-80
2021/11/08 01:09:53;;;;;;;12.43;3.00;;;;;;;9.25;89.95;101459.94;5032181;28;20233;-81
2021/11/08 01:12:20;;;;;;;11.80;2.70;;;;;;;9.25;89.96;101452.25;5032561;28;20190;-78
2021/11/08 01:14:46;;;;;;;13.20;3.07;;;;;;;9.26;90.09;101466.81;5032199;28;20625;-80
2021/11/08 01:17:11;;;;;;;9.80;2.63;;;;;;;9.24;89.50;101471.84;5032954;28;20187;-78
2021/11/08 01:19:37;;;;;;;10.57;2.43;;;;;;;9.27;89.66;101474.50;5032704;28;20229;-81
2021/11/08 01:22:06;;;;;;;11.13;2.77;;;;;;;9.27;89.94;101471.94;5015915;28;20202;-81
2021/11/08 01:24:34;;;;;;;14.43;2.53;;;;;;;9.28;89.57;101470.28;5034887;28;20277;-78
2021/11/08 01:27:00;;;;;;;17.77;2.87;;;;;;;9.28;90.00;101478.81;5019277;28;20193;-80
2021/11/08 01:29:26;;;;;;;12.20;3.03;;;;;;;9.26;89.73;101485.53;5035722;28;20207;-80
2021/11/08 01:31:51;;;;;;;10.93;3.00;;;;;;;9.27;89.94;101479.59;5035924;28;20892;-79
2021/11/08 01:34:17;;;;;;;7.60;2.33;;;;;;;9.26;89.49;101485.53;5035797;28;20237;-80
2021/11/08 01:36:50;;;;;;;10.93;3.10;;;;;;;9.27;90.06;101483.88;5035493;28;20183;-80
2021/11/08 01:39:18;;;;;;;12.00;2.80;;;;;;;9.27;89.33;101494.09;5038422;28;20183;-81
2021/11/08 01:41:46;;;;;;;10.80;2.37;;;;;;;9.26;89.68;101489.81;5037262;28;20574;-79
2021/11/08 01:44:12;;;;;;;11.63;2.60;;;;;;;9.28;89.33;101498.38;5036641;28;20647;-80
2021/11/08 01:46:38;;;;;;;11.50;2.20;;;;;;;9.26;89.00;101505.97;5036492;28;20205;-80
2021/11/08 01:49:04;;;;;;;10.73;2.57;;;;;;;9.30;89.27;101499.31;5036986;28;20190;-80
2021/11/08 01:51:29;;;;;;;8.40;2.20;;;;;;;9.27;89.60;101504.31;5036052;28;20210;-79
2021/11/08 01:53:56;;;;;;;10.10;2.77;;;;;;;9.28;89.18;101509.47;5036140;28;20218;-80
2021/11/08 01:56:23;;;;;;;11.80;2.30;;;;;;;9.28;89.64;101512.03;5019639;28;20217;-79
2021/11/08 01:58:48;;;;;;;13.33;2.47;;;;;;;9.26;89.20;101517.91;5019881;28;20186;-80
2021/11/08 02:01:14;;;;;;;10.10;2.87;;;;;;;9.26;89.12;101517.91;5019839;28;20218;-80
2021/11/08 02:03:39;;;;;;;12.73;2.57;;;;;;;9.24;89.74;101522.06;5037620;28;20585;-80
2021/11/08 02:06:05;;;;;;;10.83;3.27;;;;;;;9.16;89.46;101521.81;5035358;28;20186;-80
2021/11/08 02:08:31;;;;;;;11.43;2.97;;;;;;;9.18;89.65;101520.19;5036943;28;20199;-80
2021/11/08 02:10:56;;;;;;;9.87;2.40;;;;;;;9.18;89.52;101522.75;5036736;28;20209;-79
2021/11/08 02:13:23;;;;;;;14.10;2.83;;;;;;;9.14;89.92;101528.56;5035964;28;20309;-80
2021/11/08 02:15:51;;;;;;;17.57;3.50;;;;;;;9.10;89.66;101530.94;5033769;28;20186;-79
2021/11/08 02:18:18;;;;;;;13.17;2.80;;;;;;;9.08;89.28;101538.53;5015226;28;20195;-80
2021/11/08 02:20:47;;;;;;;18.17;3.60;;;;;;;9.05;89.79;101540.13;5034038;22;20226;-78
2021/11/08 02:23:12;;;;;;;15.27;3.13;;;;;;;9.03;89.66;101542.63;5012016;28;20191;-79
2021/11/08 02:25:39;;;;;;;14.13;3.37;;;;;;;9.00;89.86;101542.53;4996913;28;20191;-79
2021/11/08 02:28:10;;;;;;;13.37;3.03;;;;;;;9.05;89.80;101555.44;5012698;28;20249;-76
2021/11/08 02:30:37;;;;;;;16.70;3.17;;;;;;;9.06;89.72;101552.97;4994342;28;20200;-80
2021/11/08 02:33:04;;;;;;;17.40;3.73;;;;;;;9.06;89.76;101560.63;5011898;28;20648;-78
2021/11/08 02:35:30;;;;;;;13.00;3.03;;;;;;;9.09;90.04;101562.41;4995850;28;20290;-77
2021/11/08 02:37:56;;;;;;;14.87;2.47;;;;;;;9.11;90.36;101565.88;4995848;28;20200;-78
2021/11/08 02:40:25;;;;;;;14.53;3.07;;;;;;;9.12;90.32;101567.66;5012621;28;20219;-79
2021/11/08 02:42:53;;;;;;;14.80;2.50;;;;;;;9.12;89.97;101576.16;5012440;28;20665;-78
2021/11/08 02:45:22;;;;;;;15.47;3.30;;;;;;;9.15;89.53;101572.84;4996890;28;20670;-78
2021/11/08 02:47:48;;;;;;;13.73;2.77;;;;;;;9.12;90.19;101575.31;5012111;28;20329;-78
2021/11/08 02:50:16;;;;;;;23.30;3.53;;;;;;;9.11;90.08;101581.22;4997103;28;20212;-77
2021/11/08 02:52:44;;;;;;;10.53;3.10;;;;;;;9.12;89.61;101576.16;5009475;28;20184;-76
2021/11/08 02:55:09;;;;;;;13.17;2.50;;;;;;;9.10;89.85;101570.13;4995320;28;20235;-78
2021/11/08 02:57:36;;;;;;;13.20;2.97;;;;;;;9.12;89.37;101577.88;4996240;28;20191;-78
2021/11/08 03:00:05;;;;;;;11.80;2.23;;;;;;;9.10;89.23;101574.38;4996378;28;20208;-79
2021/11/08 03:02:33;;;;;;;9.27;2.80;;;;;;;9.06;89.49;101587.84;4978055;28;21730;-78
2021/11/08 03:04:59;;;;;;;12.57;2.97;;;;;;;9.03;89.47;101588.59;5011830;28;20219;-78
2021/11/08 03:07:29;;;;;;;11.37;2.50;;;;;;;9.00;89.84;101597.84;4996457;28;20695;-78
2021/11/08 03:09:58;;;;;;;13.33;2.87;;;;;;;8.91;89.58;101592.38;5010875;28;20294;-77
2021/11/08 03:12:27;;;;;;;10.50;2.33;;;;;;;8.88;90.38;101593.13;4994373;28;20443;-78
2021/11/08 03:15:06;;;;;;;11.03;2.73;;;;;;;8.84;90.00;101611.69;5010958;28;20221;-78
2021/11/08 03:17:42;;;;;;;5.97;2.10;;;;;;;8.81;89.60;101601.34;5010489;28;20198;-79
2021/11/08 03:20:11;;;;;;;10.43;3.00;;;;;;;8.74;89.51;101609.59;5011432;28;20215;-78
2021/11/08 03:22:38;;;;;;;8.47;2.07;;;;;;;8.79;89.89;101605.56;4995508;28;20192;-78
2021/11/08 03:25:16;;;;;;;6.83;1.70;;;;;;;8.78;90.02;101608.91;5009607;28;20195;-78
2021/11/08 03:27:55;;;;;;;8.40;2.33;;;;;;;8.80;89.34;101616.66;4993668;28;20219;-78
2021/11/08 03:30:26;;;;;;;10.63;2.20;;;;;;;8.83;90.27;101617.63;4993761;28;20626;-78
2021/11/08 03:32:54;;;;;;;12.93;2.30;;;;;;;8.81;89.67;101619.22;5010674;28;20195;-77
2021/11/08 03:35:23;;;;;;;7.50;2.20;;;;;;;8.83;89.72;101621.84;4994328;28;20196;-78
2021/11/08 03:37:49;;;;;;;10.73;2.20;;;;;;;8.84;90.06;101628.72;4979239;28;20192;-79
2021/11/08 03:40:24;;;;;;;10.03;1.63;;;;;;;8.83;90.55;101632.06;4996147;28;20207;-78
2021/11/08 03:42:51;;;;;;;10.93;2.57;;;;;;;8.86;90.29;101632.19;4979166;28;20191;-78
2021/11/08 03:45:17;;;;;;;12.87;2.87;;;;;;;8.85;90.17;101638.97;5010887;28;20199;-78
2021/11/08 03:47:43;;;;;;;8.43;2.27;;;;;;;8.86;90.45;101637.31;5010019;28;20696;-78
2021/11/08 03:50:09;;;;;;;10.40;2.23;;;;;;;8.84;89.85;101642.34;4994332;28;20211;-78
2021/11/08 03:52:37;;;;;;;11.30;2.60;;;;;;;8.84;90.22;101650.00;4995759;28;20673;-79
2021/11/08 03:55:04;;;;;;;12.33;2.30;;;;;;;8.85;89.80;101654.28;4994499;28;20239;-78
2021/11/08 03:57:30;;;;;;;12.53;2.80;;;;;;;8.88;90.18;101650.97;4995455;28;20215;-79
2021/11/08 03:59:55;;;;;;;11.80;2.73;;;;;;;8.86;90.00;101658.63;4995468;28;20196;-79
2021/11/08 04:02:21;;;;;;;11.43;2.63;;;;;;;8.85;90.23;101661.94;4993729;28;20202;-79
2021/11/08 04:04:47;;;;;;;11.00;2.50;;;;;;;8.85;90.53;101671.31;4994465;28;20188;-79
2021/11/08 04:07:13;;;;;;;12.53;2.70;;;;;;;8.83;89.99;101676.34;4994826;28;20188;-78
2021/11/08 04:09:39;;;;;;;12.53;3.20;;;;;;;8.80;89.87;101671.13;4994626;28;20219;-78
2021/11/08 04:12:05;;;;;;;12.17;2.67;;;;;;;8.81;90.35;101677.97;4995062;28;20278;-77
2021/11/08 04:14:30;;;;;;;15.03;3.00;;;;;;;8.81;90.33;101669.44;5010347;28;20238;-78
2021/11/08 04:16:56;;;;;;;14.47;2.53;;;;;;;8.78;90.47;101679.53;4994369;28;20641;-78
2021/11/08 04:19:27;;;;;;;15.27;2.30;;;;;;;8.80;90.11;101680.47;5009567;28;20696;-78
2021/11/08 04:21:53;;;;;;;17.03;2.93;;;;;;;8.83;90.47;101688.25;5009860;28;20187;-77
2021/11/08 04:24:19;;;;;;;15.37;2.70;;;;;;;8.86;90.78;101693.47;5009269;28;20318;-78
2021/11/08 04:26:44;;;;;;;15.80;2.77;;;;;;;8.87;90.42;101692.66;4993734;28;20606;-79
2021/11/08 04:29:09;;;;;;;12.97;2.60;;;;;;;8.84;90.17;101690.88;5009895;28;20203;-78
2021/11/08 04:31:37;;;;;;;16.23;3.07;;;;;;;8.85;90.48;101689.19;4993871;28;20194;-79
2021/11/08 04:37:30;;;;;;;13.10;2.87;;;;;;;8.79;90.76;101694.03;4976800;28;20223;-78
2021/11/08 04:45:32;;;;;;;10.97;2.37;;;;;;;8.80;91.13;101711.13;4994933;28;20476;-77
2021/11/08 04:55:57;;;;;;;17.27;3.30;;;;;;;8.80;89.88;101709.41;4994340;28;20256;-79
2021/11/08 04:58:58;;;;;;;14.10;3.30;;;;;;;8.78;90.03;101713.59;5009651;28;20764;-78
2021/11/08 05:21:12;;;;;;;21.47;4.17;;;;;;;8.80;89.11;101719.63;4997184;28;20184;-78
2021/11/08 05:28:41;;;;;;;12.90;2.70;;;;;;;8.68;89.83;101738.69;4996933;28;20194;-79
2021/11/08 05:31:06;;;;;;;14.07;3.10;;;;;;;8.68;89.02;101746.34;5012798;28;20216;-79
2021/11/08 05:33:33;;;;;;;18.67;3.30;;;;;;;8.64;89.52;101742.81;5013028;28;20299;-78
2021/11/08 05:35:58;;;;;;;16.63;2.93;;;;;;;8.68;90.01;101754.00;4997156;28;20196;-78
2021/11/08 05:38:25;;;;;;;14.23;3.30;;;;;;;8.71;89.89;101759.25;5010491;28;20187;-78
2021/11/08 05:40:51;;;;;;;16.87;3.47;;;;;;;8.67;89.37;101762.50;4995592;28;20204;-78
2021/11/08 05:43:16;;;;;;;17.40;3.30;;;;;;;8.68;89.06;101767.66;4994854;28;20673;-78
2021/11/08 05:45:42;;;;;;;16.87;3.40;;;;;;;8.68;89.60;101762.56;5010972;28;20275;-78
2021/11/08 05:48:08;;;;;;;14.90;3.63;;;;;;;8.64;89.03;101770.00;4994779;28;20224;-78
2021/11/08 05:50:37;;;;;;;15.77;3.47;;;;;;;8.64;89.51;101770.91;4994410;28;20215;-77
2021/11/08 05:53:05;;;;;;;14.93;3.47;;;;;;;8.66;89.57;101773.50;4995675;28;20215;-78
2021/11/08 05:55:42;;;;;;;12.60;3.23;;;;;;;8.62;88.98;101779.28;4993934;28;20173;-76
2021/11/08 06:49:54;;;;;;;14.30;3.20;;;;;;;8.55;88.51;101846.19;4993765;28;20214;-77
2021/11/08 06:52:21;;;;;;;15.50;2.73;;;;;;;8.56;88.30;101841.16;4992598;28;20267;-78
2021/11/08 06:54:48;;;;;;;16.77;3.70;;;;;;;8.58;87.46;101844.69;4993902;28;20211;-77
2021/11/08 06:57:17;;;;;;;20.33;3.23;;;;;;;8.50;88.27;101843.47;4991679;28;20192;-78
2021/11/08 06:59:44;;;;;;;16.23;2.57;;;;;;;8.49;87.24;101853.59;4994198;28;20772;-78
2021/11/08 07:02:12;;;;;;;13.97;3.40;;;;;;;8.50;87.25;101857.88;4993680;28;20257;-77
2021/11/08 07:04:38;;;;;;;12.10;2.70;;;;;;;8.51;87.09;101854.53;4992817;28;20262;-77
2021/11/08 07:07:06;;;;;;;11.57;2.50;;;;;;;8.52;87.37;101859.69;4991898;28;20697;-78
2021/11/08 07:09:32;;;;;;;14.20;3.53;;;;;;;8.47;87.39;101862.88;4993477;28;20208;-78
2021/11/08 07:11:57;;;;;;;11.33;2.90;;;;;;;8.45;87.47;101867.03;4993742;28;20680;-77
2021/11/08 07:14:22;;;;;;;14.80;3.73;;;;;;;8.47;86.40;101876.50;5009065;28;20306;-77
2021/11/08 07:16:48;;;;;;;15.87;2.60;;;;;;;8.54;87.31;101877.63;4992973;28;20192;-76
2021/11/08 07:19:15;;;;;;;13.03;2.90;;;;;;;8.51;86.80;101882.59;5008309;28;20192;-78
2021/11/08 07:21:41;;;;;;;17.30;2.60;;;;;;;8.53;86.97;101883.56;5007533;28;20196;-76
2021/11/08 07:24:06;;;;;;;11.03;2.63;;;;;;;8.49;87.26;101894.44;4992619;28;20184;-78
2021/11/08 07:26:32;;;;;;;10.73;2.97;;;;;;;8.54;87.35;101893.84;5008756;28;20192;-78
2021/11/08 07:28:57;;;;;;;12.87;3.13;;;;;;;8.54;87.39;101888.72;4993222;28;20188;-78
2021/11/08 07:31:23;;;;;;;17.47;3.10;;;;;;;8.59;86.17;101900.03;4993231;28;20212;-77
2021/11/08 07:33:48;;;;;;;13.60;3.07;;;;;;;8.64;86.55;101892.53;4993038;28;20222;-78
2021/11/08 07:36:14;;;;;;;14.10;2.60;;;;;;;8.55;86.16;101907.47;5008496;28;20203;-77
2021/11/08 07:38:39;;;;;;;12.00;2.77;;;;;;;8.59;86.59;101906.78;4975548;28;20192;-77
2021/11/08 07:41:09;;;;;;;13.27;2.40;;;;;;;8.65;85.99;101907.94;4993699;28;20294;-78
2021/11/08 07:43:35;;;;;;;11.77;3.43;;;;;;;8.72;85.64;101912.53;5008621;28;20204;-78
2021/11/08 07:46:01;;;;;;;10.20;2.83;;;;;;;8.76;85.09;101911.81;4993345;28;20203;-78
2021/11/08 07:48:26;;;;;;;11.37;2.57;;;;;;;8.77;85.73;101921.25;4993687;28;20656;-77
2021/11/08 07:50:52;;;;;;;10.90;2.60;;;;;;;8.68;85.96;101927.63;4993297;28;20590;-77
2021/11/08 07:53:17;;;;;;;11.83;3.17;;;;;;;8.77;85.01;101921.25;5008299;28;20564;-76
2021/11/08 07:55:44;;;;;;;13.00;3.00;;;;;;;8.78;85.28;101927.22;4991861;28;20181;-78
2021/11/08 07:58:09;;;;;;;8.53;2.70;;;;;;;8.73;85.11;101931.25;5008135;28;20617;-78
2021/11/08 08:00:37;;;;;;;14.03;3.43;;;;;;;8.88;85.45;101924.25;5007182;28;20222;-78
2021/11/08 08:03:03;;;;;;;13.33;2.93;;;;;;;8.84;84.81;101925.81;5008038;28;20192;-77
2021/11/08 08:05:29;;;;;;;18.47;3.30;;;;;;;8.70;84.89;101924.31;4992377;28;20253;-78
2021/11/08 08:07:54;;;;;;;15.80;3.37;;;;;;;8.63;84.49;101929.09;4992250;28;20188;-78
2021/11/08 08:10:20;;;;;;;11.30;3.20;;;;;;;8.61;85.50;101935.84;4991388;28;20230;-78
2021/11/08 08:12:45;;;;;;;12.77;3.50;;;;;;;8.76;84.85;101927.13;5007779;28;20564;-77
2021/11/08 08:15:11;;;;;;;12.60;2.90;;;;;;;8.88;84.98;101937.91;5007602;28;20278;-78
2021/11/08 08:17:38;;;;;;;14.83;2.80;;;;;;;9.06;84.60;101935.25;4993005;28;20192;-77
2021/11/08 08:20:10;;;;;;;9.30;2.83;;;;;;;9.26;83.54;101937.84;4993003;28;20671;-77
2021/11/08 08:22:36;;;;;;;14.20;3.27;;;;;;;9.52;82.57;101937.25;4991601;28;20199;-77
2021/11/08 08:25:02;;;;;;;8.20;2.33;;;;;;;9.70;80.76;101943.13;5008263;28;20275;-78
2021/11/08 08:27:27;;;;;;;14.83;2.90;;;;;;;9.52;81.04;101942.38;4993141;28;20580;-77
2021/11/08 08:29:53;;;;;;;13.57;2.80;;;;;;;9.26;81.48;101945.50;4993359;28;20208;-77
2021/11/08 08:32:19;;;;;;;14.07;3.03;;;;;;;9.22;81.98;101933.41;4991343;28;20204;-78
2021/11/08 08:34:45;;;;;;;13.10;3.10;;;;;;;9.24;81.69;101944.59;4991359;28;20224;-78
2021/11/08 08:37:11;;;;;;;11.13;2.83;;;;;;;9.66;80.89;101948.91;4992060;28;20218;-78
2021/11/08 08:39:37;;;;;;;15.07;3.23;;;;;;;10.07;79.43;101945.47;4992611;28;20211;-78
2021/11/08 08:42:02;;;;;;;8.83;3.03;;;;;;;11.01;76.18;101937.94;5007499;28;20262;-77
2021/11/08 08:44:29;;;;;;;13.63;2.83;;;;;;;15.15;61.50;101908.06;4991592;28;20192;-76
2021/11/08 08:46:54;;;;;;;8.77;2.47;;;;;;;15.95;56.29;101899.97;4992423;28;20192;-77
2021/11/08 08:49:22;;;;;;;7.77;3.13;;;;;;;17.05;53.36;101897.06;5008734;28;20209;-78
2021/11/08 08:51:47;;;;;;;8.20;2.70;;;;;;;17.28;52.14;101910.22;5008349;28;20188;-77
2021/11/08 08:54:13;;;;;;;7.53;2.67;;;;;;;18.40;49.83;101897.25;4993944;28;20208;-78
2021/11/08 08:56:39;;;;;;;9.30;2.77;;;;;;;19.17;47.55;101898.34;4992383;28;20196;-77
2021/11/08 08:59:05;;;;;;;7.57;2.83;;;;;;;18.30;48.70;101904.09;4993223;28;20208;-77
2021/11/08 09:01:31;;;;;;;8.33;2.27;;;;;;;18.44;48.58;101904.19;5009507;28;20214;-78
2021/11/08 09:03:57;;;;;;;7.90;2.43;;;;;;;18.72;48.17;101906.03;4994209;28;20207;-77
2021/11/08 09:06:25;;;;;;;8.30;2.50;;;;;;;18.35;49.10;101912.81;4992463;28;20199;-78
2021/11/08 09:08:52;;;;;;;9.03;2.37;;;;;;;18.39;48.88;101914.56;4993158;28;20271;-78
2021/11/08 09:11:17;;;;;;;7.77;2.40;;;;;;;16.40;53.90;101917.84;5009672;28;20699;-78
2021/11/08 09:13:44;;;;;;;9.37;2.83;;;;;;;16.57;54.47;101918.94;4993656;28;20312;-78
2021/11/08 09:16:13;;;;;;;7.93;2.40;;;;;;;19.26;47.91;101904.44;4993186;28;20195;-78
2021/11/08 09:18:43;;;;;;;6.17;2.47;;;;;;;20.06;44.31;101912.19;4994102;28;20180;-77
2021/11/08 09:21:10;;;;;;;10.13;3.27;;;;;;;21.46;41.44;101915.88;5010502;28;20231;-78
2021/11/08 09:23:36;;;;;;;11.53;3.10;;;;;;;22.44;39.99;101920.16;4993348;28;20216;-79
2021/11/08 09:26:02;;;;;;;8.20;2.77;;;;;;;22.26;40.83;101915.16;4994685;28;20572;-79
2021/11/08 09:28:29;;;;;;;6.60;2.40;;;;;;;20.17;43.46;101928.69;5010335;28;20192;-78
2021/11/08 09:30:54;;;;;;;7.77;2.50;;;;;;;17.64;51.11;101937.34;4995077;28;20204;-78
2021/11/08 09:33:19;;;;;;;8.07;3.00;;;;;;;17.88;50.40;101939.25;5008902;28;20481;-78
2021/11/08 09:35:49;;;;;;;8.43;3.20;;;;;;;21.20;42.54;101924.78;4993455;28;20216;-79
2021/11/08 09:38:15;;;;;;;9.13;3.60;;;;;;;22.43;40.01;101934.97;4995055;28;20528;-79
2021/11/08 09:40:42;;;;;;;7.13;3.20;;;;;;;23.00;39.05;101924.69;5010611;28;20204;-79
2021/11/08 09:43:15;;;;;;;7.50;3.40;;;;;;;20.94;40.82;101931.88;5008836;28;20689;-78
2021/11/08 09:45:42;;;;;;;7.13;2.30;;;;;;;19.79;45.13;101948.63;4994845;28;20202;-77
2021/11/08 09:48:11;;;;;;;8.00;2.63;;;;;;;19.03;47.29;101950.25;4998226;28;20192;-77
2021/11/08 09:50:37;;;;;;;5.90;2.20;;;;;;;17.06;52.04;101953.16;4996047;28;20298;-77
2021/11/08 09:53:04;;;;;;;6.27;2.67;;;;;;;16.17;54.09;101965.75;4996275;28;20287;-78
2021/11/08 09:55:30;;;;;;;7.93;2.40;;;;;;;16.87;53.40;101952.94;4997654;28;20208;-76
2021/11/08 09:57:56;;;;;;;10.63;2.57;;;;;;;15.91;55.89;101959.31;4998548;28;20192;-79
2021/11/08 10:00:47;;;;;;;8.37;2.10;;;;;;;14.68;60.18;101964.75;4996187;28;20732;-77
2021/11/08 10:03:17;;;;;;;9.80;2.50;;;;;;;15.20;59.06;101960.63;5012540;28;20188;-78
2021/11/08 10:05:45;;;;;;;10.03;2.50;;;;;;;15.13;59.69;101961.38;4998269;28;20188;-79
2021/11/08 10:08:13;;;;;;;9.70;2.57;;;;;;;15.55;58.32;101967.31;5006421;28;20199;-77
2021/11/08 10:10:38;;;;;;;12.93;2.60;;;;;;;14.45;60.06;101969.41;5003460;28;20652;-77
2021/11/08 10:13:16;;;;;;;10.87;2.20;;;;;;;13.60;63.15;101978.50;4996309;28;20184;-78
2021/11/08 10:15:47;;;;;;;8.20;2.27;;;;;;;13.17;64.96;101987.63;4995347;28;20219;-77
2021/11/08 10:18:15;;;;;;;9.83;2.70;;;;;;;13.20;66.36;101982.56;4995351;28;20768;-77
2021/11/08 10:20:44;;;;;;;11.23;2.63;;;;;;;12.54;68.21;101984.94;5011083;28;20216;-76
2021/11/08 10:23:12;;;;;;;10.13;2.47;;;;;;;12.47;68.88;101987.28;4996274;28;20254;-77
2021/11/08 10:25:39;;;;;;;9.83;2.30;;;;;;;12.81;68.57;101982.31;4995693;28;20188;-77
2021/11/08 10:28:24;;;;;;;8.90;2.50;;;;;;;12.85;67.67;101982.44;4997022;28;20200;-78
2021/11/08 10:30:57;;;;;;;6.57;2.27;;;;;;;12.83;68.15;101985.78;4996076;28;20215;-78
2021/11/08 10:33:25;;;;;;;10.10;2.63;;;;;;;12.59;68.07;101987.66;4997445;28;20621;-78
2021/11/08 10:35:56;;;;;;;13.43;2.83;;;;;;;12.24;70.17;101990.84;5012102;28;20199;-78
2021/11/08 10:38:24;;;;;;;9.33;2.60;;;;;;;12.24;70.83;101993.41;5011608;28;20196;-78
2021/11/08 10:41:02;;;;;;;10.00;2.67;;;;;;;12.25;70.99;101988.31;4995760;28;20208;-77
2021/11/08 10:43:38;;;;;;;9.37;3.27;;;;;;;11.93;73.87;102001.00;4995273;28;20187;-78
2021/11/08 10:46:16;;;;;;;9.90;2.43;;;;;;;11.30;76.23;101998.78;4995438;28;20210;-77
2021/11/08 10:48:45;;;;;;;10.93;3.30;;;;;;;11.30;77.58;101996.22;5010303;28;20180;-76
2021/11/08 10:51:14;;;;;;;11.47;3.47;;;;;;;11.31;78.10;101988.59;4994225;28;20231;-77
2021/11/08 10:53:46;;;;;;;9.70;2.70;;;;;;;11.20;77.53;101995.00;5011017;28;20711;-78
2021/11/08 10:56:14;;;;;;;8.03;2.40;;;;;;;11.20;78.29;101986.47;4983654;28;20260;-78
2021/11/08 10:58:44;;;;;;;6.20;2.33;;;;;;;10.99;78.21;101996.81;4994931;28;20196;-78
2021/11/08 11:01:20;;;;;;;13.47;3.30;;;;;;;10.67;79.69;101997.34;5013008;28;20216;-77
2021/11/08 11:03:53;;;;;;;9.87;2.93;;;;;;;10.98;79.03;101989.97;4996170;28;20637;-78
2021/11/08 11:06:21;;;;;;;10.20;3.10;;;;;;;10.88;79.06;101995.53;4976819;28;20553;-78
2021/11/08 11:08:51;;;;;;;10.23;2.87;;;;;;;10.82;80.05;101989.31;5010139;28;20219;-77
2021/11/08 11:11:23;;;;;;;9.37;3.10;;;;;;;10.75;80.40;101985.69;5012561;28;20258;-78
2021/11/08 11:13:51;;;;;;;14.83;3.80;;;;;;;10.79;80.57;101982.41;4995453;28;20227;-78
2021/11/08 11:16:33;;;;;;;8.30;3.13;;;;;;;10.77;80.86;101984.03;5010349;28;20180;-77
2021/11/08 11:19:11;;;;;;;11.03;3.33;;;;;;;10.71;80.83;101986.38;4994542;28;20188;-78
2021/11/08 11:21:38;;;;;;;11.77;3.67;;;;;;;10.60;80.84;101987.66;4994954;28;20172;-78
2021/11/08 11:24:06;;;;;;;11.40;3.50;;;;;;;10.47;81.07;101985.44;4996685;28;20182;-77
2021/11/08 11:26:46;;;;;;;11.77;3.10;;;;;;;10.55;82.16;101986.63;4994876;28;20184;-79
2021/11/08 11:29:12;;;;;;;11.27;3.30;;;;;;;10.33;82.00;101988.31;4996234;28;20176;-79
2021/11/08 11:31:37;;;;;;;16.57;3.53;;;;;;;10.30;81.91;101985.63;5012066;28;20211;-78
2021/11/08 11:34:13;;;;;;;7.97;2.93;;;;;;;10.22;83.39;101987.91;4997109;28;20255;-77
2021/11/08 11:36:39;;;;;;;10.87;2.93;;;;;;;10.19;83.58;101992.88;4994635;28;20199;-78
2021/11/08 11:39:08;;;;;;;12.93;3.73;;;;;;;10.23;83.25;101993.91;5012192;28;20202;-77
2021/11/08 11:41:36;;;;;;;10.50;3.80;;;;;;;10.38;83.17;101991.91;4994987;28;20560;-77
2021/11/08 11:44:17;;;;;;;12.30;3.57;;;;;;;10.30;83.64;101983.94;4996307;28;20223;-79
2021/11/08 11:46:47;;;;;;;11.77;3.57;;;;;;;10.33;83.81;101986.59;4994836;28;20203;-78
2021/11/08 11:49:13;;;;;;;13.33;3.63;;;;;;;10.36;83.57;101978.16;5010904;28;20211;-78
2021/11/08 11:51:43;;;;;;;14.63;3.77;;;;;;;10.25;84.30;101990.59;4994417;28;20184;-78
2021/11/08 11:54:11;;;;;;;11.83;3.57;;;;;;;10.14;84.12;101981.59;4996654;28;20726;-78
2021/11/08 11:56:39;;;;;;;13.23;4.07;;;;;;;10.10;84.58;101976.31;4996272;28;20184;-78
2021/11/08 11:59:06;;;;;;;16.63;4.03;;;;;;;10.00;84.21;101977.59;4996294;28;20192;-77
2021/11/08 12:01:33;;;;;;;14.87;3.13;;;;;;;10.12;84.41;101967.88;4995695;28;20180;-78
2021/11/08 12:03:59;;;;;;;14.73;4.00;;;;;;;9.96;84.70;101974.84;4994404;28;20203;-75
2021/11/08 12:06:37;;;;;;;11.67;3.37;;;;;;;10.08;85.57;101976.25;4993906;28;20184;-77
2021/11/08 12:09:06;;;;;;;12.07;3.73;;;;;;;9.98;85.56;101973.22;4994189;28;20257;-77
2021/11/08 12:11:41;;;;;;;16.53;3.30;;;;;;;9.86;86.66;101977.88;4993209;28;20192;-77
2021/11/08 12:14:29;;;;;;;11.37;2.90;;;;;;;9.85;86.43;101979.53;4974852;28;20211;-76
2021/11/08 12:17:02;;;;;;;17.10;3.67;;;;;;;9.83;86.85;101981.19;5006634;28;20211;-76
2021/11/08 12:19:39;;;;;;;15.97;4.43;;;;;;;9.85;87.35;101983.78;4991717;28;20223;-77
2021/11/08 12:22:20;;;;;;;14.17;3.77;;;;;;;9.87;87.10;101979.59;4992367;28;20203;-78
2021/11/08 12:24:57;;;;;;;15.70;3.90;;;;;;;9.73;87.63;101976.47;4992500;28;20555;-77
2021/11/08 12:27:33;;;;;;;17.97;4.97;;;;;;;9.75;88.06;101982.53;4991458;28;20191;-78
2021/11/08 12:29:59;;;;;;;13.23;3.77;;;;;;;9.77;87.89;101986.03;4991829;28;20655;-78
2021/11/08 12:32:24;;;;;;;14.37;4.17;;;;;;;9.82;88.04;101979.41;4992182;28;20247;-77
2021/11/08 12:34:54;;;;;;;17.83;5.03;;;;;;;9.83;87.90;101986.28;4975203;28;20216;-78
2021/11/08 12:37:32;;;;;;;13.70;4.43;;;;;;;9.74;87.95;101985.03;4974840;28;20649;-78
2021/11/08 12:39:59;;;;;;;11.60;4.30;;;;;;;9.79;88.46;101974.19;4992717;28;20241;-78
2021/11/08 12:42:36;;;;;;;14.77;4.70;;;;;;;9.82;88.99;101983.66;5007686;28;20255;-78
2021/11/08 12:45:13;;;;;;;13.13;4.43;;;;;;;9.78;89.32;101977.56;5008289;28;20188;-78
2021/11/08 12:47:38;;;;;;;14.50;4.77;;;;;;;9.78;88.71;101985.22;4992796;28;20219;-78
2021/11/08 12:50:04;;;;;;;15.47;4.93;;;;;;;9.75;88.81;101986.78;4993014;28;20219;-77
2021/11/08 12:52:33;;;;;;;14.30;5.60;;;;;;;9.73;89.28;101989.25;5008196;28;20220;-78
2021/11/08 12:55:01;;;;;;;14.53;5.40;;;;;;;9.71;89.38;101988.34;4992822;28;20234;-78
2021/11/08 12:57:28;;;;;;;15.60;5.73;;;;;;;9.68;89.19;101984.78;4990814;28;20198;-78
2021/11/08 12:59:56;;;;;;;12.43;5.57;;;;;;;9.64;89.43;101986.31;4992462;28;20214;-78
2021/11/08 13:02:27;;;;;;;14.53;5.93;;;;;;;9.62;89.31;101985.41;4991665;28;20729;-77
2021/11/08 13:04:55;;;;;;;12.97;6.70;;;;;;;9.66;89.35;101984.72;5007994;28;20225;-78
2021/11/08 13:07:22;;;;;;;16.63;6.83;;;;;;;9.68;89.45;101993.31;5007674;28;20195;-77